KMLI/MLI METAR and TAF weather

Enter ICAO airport designator
Station Type Date Time Source
KMLI METAR 2020/02/26 09:52 UTC NOAA

KMLI 260952Z AUTO 36008G17KT 10SM FEW060 SCT120 M01/M07 A3013 RMK AO2 SLP208 T10061072


Station Type Date Time Source
KMLI Decoded METAR 2020/02/26 09:52 UTC NOAA

MOLINE QUAD-CITY AIRPORT, IL, United States (KMLI) 41-27N 90-31W 184M
Feb 26, 2020 - 04:52 AM EST / 2020.02.26 0952 UTC
Wind: from the N (360 degrees) at 9 MPH (8 KT) gusting to 20 MPH (17 KT):0
Visibility: 10 mile(s):0
Sky conditions: partly cloudy
Temperature: 30.9 F (-0.6 C)
Windchill: 23 F (-5 C):1
Dew Point: 19.0 F (-7.2 C)
Relative Humidity: 60%
Pressure (altimeter): 30.13 in. Hg (1020 hPa)
ob: KMLI 260952Z AUTO 36008G17KT 10SM FEW060 SCT120 M01/M07 A3013 RMK AO2 SLP208 T10061072
cycle: 10

Station Type Date Time Source
KMLI TAF 2020/02/26 06:22 UTC NOAA

TAF KMLI 260520Z 2606/2706 02010G20KT P6SM BKN035
FM261400 35012G23KT P6SM SCT030 OVC100
FM261700 35012G25KT P6SM OVC035

Example: see airport list